createdAt,value
2023-03-02T00:00:04.413Z,60.71
2023-03-02T00:01:04.420Z,60.61
2023-03-02T00:02:04.392Z,60.61
2023-03-02T00:03:04.533Z,60.71
2023-03-02T00:04:04.442Z,60.71
2023-03-02T00:05:04.382Z,60.71
2023-03-02T00:06:04.359Z,60.61
2023-03-02T00:07:04.374Z,60.61
2023-03-02T00:08:04.330Z,60.61
2023-03-02T00:09:04.335Z,60.82
2023-03-02T00:10:04.303Z,60.71
2023-03-02T00:11:04.684Z,60.82
2023-03-02T00:12:04.294Z,60.82
2023-03-02T00:13:04.318Z,60.82
2023-03-02T00:14:04.264Z,60.71
2023-03-02T00:15:04.271Z,60.82
2023-03-02T00:16:04.373Z,60.82
2023-03-02T00:17:04.270Z,60.82
2023-03-02T00:18:04.243Z,60.82
2023-03-02T00:19:04.244Z,61.02
2023-03-02T00:20:04.227Z,60.92
2023-03-02T00:21:04.205Z,60.92
2023-03-02T00:22:04.205Z,61.02
2023-03-02T00:23:04.209Z,60.92
2023-03-02T00:24:04.173Z,60.92
2023-03-02T00:25:04.197Z,60.92
2023-03-02T00:26:04.143Z,60.92
2023-03-02T00:27:04.172Z,61.02
2023-03-02T00:28:04.139Z,61.02
2023-03-02T00:29:04.133Z,61.02
2023-03-02T00:30:04.105Z,60.92
2023-03-02T00:31:04.198Z,61.02
2023-03-02T00:32:04.199Z,61.13
2023-03-02T00:33:04.104Z,61.02
2023-03-02T00:34:04.092Z,61.23
2023-03-02T00:35:04.083Z,61.13
2023-03-02T00:36:04.087Z,61.36
2023-03-02T00:37:04.051Z,61.33
2023-03-02T00:38:04.014Z,61.57
2023-03-02T00:39:04.025Z,61.47
2023-03-02T00:40:04.008Z,61.47
2023-03-02T00:41:04.062Z,61.47
2023-03-02T00:42:03.983Z,61.57
2023-03-02T00:43:03.977Z,61.47
2023-03-02T00:44:03.982Z,61.57
2023-03-02T00:45:03.954Z,61.57
2023-03-02T00:46:03.929Z,61.78
2023-03-02T00:47:04.066Z,61.68
2023-03-02T00:48:03.920Z,61.78
2023-03-02T00:49:03.934Z,61.78
2023-03-02T00:50:03.898Z,61.78
2023-03-02T00:51:03.909Z,61.78
2023-03-02T00:52:03.864Z,61.88
2023-03-02T00:53:03.895Z,61.88
2023-03-02T00:54:03.867Z,61.88
2023-03-02T00:55:03.878Z,62.09
2023-03-02T00:56:03.841Z,61.99
2023-03-02T00:57:03.831Z,61.88
2023-03-02T00:58:03.834Z,61.99
2023-03-02T00:59:03.822Z,61.99
2023-03-02T01:00:03.785Z,61.99
2023-03-02T01:01:03.822Z,61.99
2023-03-02T01:02:03.832Z,62.09
2023-03-02T01:03:03.802Z,61.88
2023-03-02T01:04:03.759Z,62.09
2023-03-02T01:05:03.737Z,62.19
2023-03-02T01:06:03.752Z,62.19
2023-03-02T01:07:03.746Z,62.41
2023-03-02T01:08:03.725Z,62.30
2023-03-02T01:09:03.703Z,62.09
2023-03-02T01:10:03.700Z,62.19
2023-03-02T01:11:03.677Z,62.19
2023-03-02T01:12:03.692Z,62.30
2023-03-02T01:13:03.678Z,62.30
2023-03-02T01:14:03.676Z,62.30
2023-03-02T01:15:03.662Z,62.30
2023-03-02T01:16:03.728Z,62.30
2023-03-02T01:17:03.619Z,62.41
2023-03-02T01:18:03.631Z,62.54
2023-03-02T01:19:03.633Z,62.64
2023-03-02T01:20:03.621Z,62.75
2023-03-02T01:21:03.591Z,62.75
2023-03-02T01:22:03.602Z,62.75
2023-03-02T01:23:03.559Z,62.75
2023-03-02T01:24:03.568Z,62.75
2023-03-02T01:25:03.570Z,62.75
2023-03-02T01:26:03.566Z,62.75
2023-03-02T01:27:03.523Z,62.64
2023-03-02T01:28:03.525Z,62.75
2023-03-02T01:29:03.498Z,62.85
2023-03-02T01:30:03.501Z,62.75
2023-03-02T01:31:03.543Z,62.75
2023-03-02T01:32:03.516Z,62.85
2023-03-02T01:33:03.464Z,62.85
2023-03-02T01:34:03.467Z,62.96
2023-03-02T01:35:03.434Z,62.96
2023-03-02T01:36:03.550Z,63.17
2023-03-02T01:37:03.447Z,63.06
2023-03-02T01:38:03.411Z,63.17
2023-03-02T01:39:03.404Z,63.27
2023-03-02T01:40:03.403Z,63.37
2023-03-02T01:41:03.376Z,63.27
2023-03-02T01:42:03.387Z,63.37
2023-03-02T01:43:03.362Z,63.37
2023-03-02T01:44:03.351Z,63.37
2023-03-02T01:45:03.330Z,63.37
2023-03-02T01:46:03.373Z,63.37
2023-03-02T01:47:03.302Z,63.48
2023-03-02T01:48:03.313Z,63.58
2023-03-02T01:49:03.316Z,63.51
2023-03-02T01:50:03.289Z,63.58
2023-03-02T01:51:03.266Z,63.48
2023-03-02T01:52:03.273Z,63.37
2023-03-02T01:53:04.706Z,63.58
2023-03-02T01:54:03.256Z,63.37
2023-03-02T01:55:03.228Z,63.48
2023-03-02T01:56:03.243Z,63.48
2023-03-02T01:57:03.207Z,63.61
2023-03-02T01:58:03.206Z,63.61
2023-03-02T01:59:03.189Z,63.61
2023-03-02T02:00:03.202Z,63.61
2023-03-02T02:01:03.258Z,63.61
2023-03-02T02:02:03.155Z,63.61
2023-03-02T02:03:03.146Z,63.61
2023-03-02T02:04:03.208Z,63.71
2023-03-02T02:05:03.117Z,63.61
2023-03-02T02:06:03.151Z,63.71
2023-03-02T02:07:03.105Z,63.71
2023-03-02T02:08:03.098Z,63.71
2023-03-02T02:09:03.090Z,63.71
2023-03-02T02:10:03.100Z,63.92
2023-03-02T02:11:03.080Z,63.92
2023-03-02T02:12:03.094Z,63.82
2023-03-02T02:13:03.050Z,63.82
2023-03-02T02:14:03.040Z,63.92
2023-03-02T02:15:03.018Z,63.82
2023-03-02T02:16:03.078Z,64.03
2023-03-02T02:17:03.101Z,64.03
2023-03-02T02:18:03.003Z,64.03
2023-03-02T02:19:02.991Z,64.03
2023-03-02T02:20:02.976Z,63.92
2023-03-02T02:21:02.958Z,64.03
2023-03-02T02:22:02.964Z,64.13
2023-03-02T02:23:02.945Z,64.13
2023-03-02T02:24:02.949Z,64.23
2023-03-02T02:25:02.932Z,64.03
2023-03-02T02:26:02.927Z,64.13
2023-03-02T02:27:02.900Z,64.13
2023-03-02T02:28:02.943Z,64.13
2023-03-02T02:29:02.877Z,64.23
2023-03-02T02:30:02.875Z,64.45
2023-03-02T07:01:01.467Z,62.60
2023-03-02T07:02:02.304Z,62.39
2023-03-02T07:03:02.305Z,62.36
2023-03-02T07:04:02.327Z,62.36
2023-03-02T07:05:02.277Z,62.26
2023-03-02T07:06:02.283Z,62.26
2023-03-02T07:07:02.316Z,62.26
2023-03-02T07:08:02.279Z,62.26
2023-03-02T07:09:02.237Z,62.15
2023-03-02T07:10:02.228Z,62.05
2023-03-02T07:11:02.227Z,61.94
2023-03-02T07:12:02.208Z,61.83
2023-03-02T07:13:02.224Z,61.83
2023-03-02T07:14:02.207Z,61.83
2023-03-02T07:15:02.177Z,61.73
2023-03-02T07:16:02.183Z,61.63
2023-03-02T07:17:02.213Z,61.73
2023-03-02T07:18:02.151Z,61.63
2023-03-02T07:19:02.137Z,61.63
2023-03-02T07:20:02.141Z,61.63
2023-03-02T07:21:02.123Z,61.71
2023-03-02T07:22:02.096Z,61.50
2023-03-02T07:23:02.083Z,61.50
2023-03-02T07:24:02.080Z,61.60
2023-03-02T07:25:02.134Z,61.60
2023-03-02T07:26:02.056Z,61.60
2023-03-02T07:27:02.045Z,61.40
2023-03-02T07:28:02.045Z,61.50
2023-03-02T07:29:02.064Z,61.29
2023-03-02T07:30:02.043Z,61.29
2023-03-02T07:31:02.133Z,61.29
2023-03-02T07:32:02.080Z,61.29
2023-03-02T07:33:01.993Z,61.16
2023-03-02T07:34:01.983Z,61.08
2023-03-02T07:35:02.030Z,61.05
2023-03-02T07:36:02.009Z,61.16
2023-03-02T07:37:01.965Z,61.16
2023-03-02T07:38:01.919Z,60.95
2023-03-02T07:39:01.925Z,60.85
2023-03-02T07:40:01.928Z,60.95
2023-03-02T07:41:01.905Z,60.95
2023-03-02T07:42:01.884Z,60.74
2023-03-02T07:43:01.957Z,60.74
2023-03-02T07:44:01.857Z,60.85
2023-03-02T07:45:01.857Z,60.63
2023-03-02T07:46:01.952Z,60.63
2023-03-02T07:47:01.839Z,60.74
2023-03-02T07:48:01.866Z,60.74
2023-03-02T07:49:01.829Z,60.74
2023-03-02T07:50:01.797Z,60.63
2023-03-02T07:51:01.804Z,60.50
2023-03-02T07:52:01.780Z,60.50
2023-03-02T07:53:01.832Z,60.50
2023-03-02T07:54:01.782Z,60.30
2023-03-02T07:55:01.761Z,60.40
2023-03-02T07:56:01.764Z,60.19
2023-03-02T07:57:01.744Z,60.19
2023-03-02T07:58:01.707Z,60.19
2023-03-02T07:59:01.757Z,60.19
2023-03-02T08:00:01.694Z,60.09
2023-03-02T08:01:01.698Z,60.09
2023-03-02T08:02:01.736Z,60.19
2023-03-02T08:03:01.680Z,60.06
2023-03-02T08:04:01.659Z,59.95
2023-03-02T08:05:01.675Z,59.95
2023-03-02T08:06:01.628Z,59.95
2023-03-02T08:07:01.626Z,59.95
2023-03-02T08:08:01.603Z,59.95
2023-03-02T08:09:01.607Z,59.85
2023-03-02T08:10:01.607Z,59.95
2023-03-02T08:11:01.597Z,59.85
2023-03-02T08:12:01.558Z,59.75
2023-03-02T08:13:01.595Z,59.72
2023-03-02T08:14:01.546Z,59.72
2023-03-02T08:15:03.596Z,59.61
2023-03-02T08:16:01.558Z,59.51
2023-03-02T08:17:01.511Z,59.51
2023-03-02T08:18:01.516Z,59.51
2023-03-02T08:19:01.518Z,59.51
2023-03-02T08:20:01.522Z,59.72
2023-03-02T08:21:01.488Z,59.51
2023-03-02T08:22:01.473Z,59.51
2023-03-02T08:23:01.459Z,59.51
2023-03-02T08:24:01.529Z,59.48
2023-03-02T08:25:01.464Z,59.38
2023-03-02T08:26:01.441Z,59.28
2023-03-02T08:27:01.405Z,59.17
2023-03-02T08:28:01.435Z,59.38
2023-03-02T08:29:01.384Z,59.28
2023-03-02T08:30:01.410Z,59.17
2023-03-02T08:31:01.364Z,59.17
2023-03-02T08:32:01.533Z,59.28
2023-03-02T08:33:05.337Z,59.04
2023-03-02T08:34:01.398Z,59.04
2023-03-02T08:35:01.339Z,59.04
2023-03-02T08:36:01.399Z,58.94
2023-03-02T08:37:01.300Z,58.83
2023-03-02T08:38:01.317Z,58.83
2023-03-02T08:39:01.323Z,58.94
2023-03-02T08:40:01.315Z,58.94
2023-03-02T08:41:01.268Z,58.73
2023-03-02T08:42:01.263Z,58.60
2023-03-02T08:43:01.242Z,58.70
2023-03-02T08:44:01.254Z,58.60
2023-03-02T08:45:01.276Z,58.60
2023-03-02T08:46:01.302Z,58.29
2023-03-02T08:47:01.195Z,58.08
2023-03-02T08:48:01.214Z,57.98
2023-03-02T08:49:01.175Z,58.08
2023-03-02T08:50:01.181Z,57.74
2023-03-02T08:51:01.179Z,57.64
2023-03-02T08:52:01.175Z,57.43
2023-03-02T08:53:01.131Z,57.43
2023-03-02T08:54:01.134Z,57.43
2023-03-02T08:55:03.298Z,57.32
2023-03-02T08:56:01.142Z,57.22
2023-03-02T08:57:01.106Z,57.22
2023-03-02T08:58:01.095Z,57.32
2023-03-02T08:59:01.073Z,57.43
2023-03-02T09:00:01.285Z,57.32
2023-03-02T09:01:01.130Z,57.30
2023-03-02T09:02:01.074Z,57.20
2023-03-02T09:03:01.028Z,57.09
2023-03-02T09:04:01.300Z,57.09
2023-03-02T09:05:01.015Z,56.88
2023-03-02T09:06:01.034Z,56.88
2023-03-02T09:07:01.006Z,56.78
2023-03-02T09:08:00.993Z,56.68
2023-03-02T09:09:01.019Z,56.78
2023-03-02T09:10:00.973Z,56.76
2023-03-02T09:11:00.962Z,56.86
2023-03-02T09:12:00.978Z,56.76
2023-03-02T09:13:00.942Z,56.76
2023-03-02T09:14:00.932Z,56.65
2023-03-02T09:15:00.937Z,56.65
2023-03-02T09:16:00.918Z,56.76
2023-03-02T09:17:01.008Z,56.65
2023-03-02T09:18:00.912Z,56.65
2023-03-02T09:19:00.887Z,56.65
2023-03-02T09:20:00.875Z,56.65
2023-03-02T09:21:00.864Z,56.62
2023-03-02T09:22:00.846Z,56.52
2023-03-02T09:23:00.845Z,56.73
2023-03-02T09:24:00.856Z,56.52
2023-03-02T09:25:00.812Z,56.62
2023-03-02T09:26:00.811Z,56.73
2023-03-02T09:27:00.845Z,56.73
2023-03-02T09:28:00.782Z,56.81
2023-03-02T09:29:00.808Z,56.70
2023-03-02T09:30:00.767Z,56.49
2023-03-02T09:31:00.738Z,56.39
2023-03-02T09:32:00.812Z,56.29
2023-03-02T09:33:00.901Z,56.39
2023-03-02T09:34:00.721Z,56.39
2023-03-02T09:35:00.727Z,56.39
2023-03-02T09:36:00.732Z,56.39
2023-03-02T09:37:00.762Z,56.37
2023-03-02T09:38:00.687Z,56.05
2023-03-02T09:39:00.688Z,55.95
2023-03-02T09:40:00.674Z,55.85
2023-03-02T09:41:00.654Z,55.74
2023-03-02T09:42:00.639Z,55.74
2023-03-02T09:43:00.646Z,55.64
2023-03-02T09:44:00.619Z,55.30
2023-03-02T09:45:00.613Z,55.41
2023-03-02T09:46:00.628Z,55.41
2023-03-02T09:47:00.591Z,55.41
2023-03-02T09:48:00.584Z,55.30
2023-03-02T09:49:02.586Z,55.30
2023-03-02T09:50:00.579Z,55.41
2023-03-02T09:51:00.548Z,55.41
2023-03-02T09:52:00.565Z,55.41
2023-03-02T09:53:00.515Z,55.18
2023-03-02T09:54:00.537Z,55.28
2023-03-02T09:55:00.500Z,55.18
2023-03-02T09:56:00.527Z,54.97
2023-03-02T09:57:00.471Z,54.86
2023-03-02T09:58:00.475Z,54.66
2023-03-02T09:59:00.451Z,54.76
2023-03-02T10:00:09.450Z,54.66
2023-03-02T10:01:00.431Z,54.66
2023-03-02T10:02:00.458Z,54.43
2023-03-02T10:03:11.416Z,54.43
2023-03-02T10:04:00.586Z,54.43
2023-03-02T10:05:00.403Z,54.22
2023-03-02T10:06:00.389Z,54.22
2023-03-02T10:07:00.352Z,54.11
2023-03-02T10:08:00.364Z,54.32
2023-03-02T10:09:00.332Z,54.43
2023-03-02T10:10:00.384Z,54.43
2023-03-02T10:11:00.317Z,54.43
2023-03-02T10:12:00.333Z,54.32
2023-03-02T10:13:00.302Z,54.43
2023-03-02T10:14:00.321Z,54.32
2023-03-02T10:15:00.289Z,54.30
2023-03-02T10:16:00.376Z,54.30
2023-03-02T10:17:00.266Z,54.40
2023-03-02T10:18:00.306Z,54.19
2023-03-02T10:19:00.235Z,54.19
2023-03-02T10:20:00.262Z,54.19
2023-03-02T10:21:00.225Z,54.17
2023-03-02T10:22:00.220Z,54.27
2023-03-02T10:23:00.190Z,54.27
2023-03-02T10:24:00.195Z,54.06
2023-03-02T10:25:00.186Z,54.06
2023-03-02T10:26:00.191Z,53.96
2023-03-02T10:27:00.136Z,53.75
2023-03-02T10:28:00.148Z,53.65
2023-03-02T10:29:00.342Z,53.73
2023-03-02T10:30:00.152Z,53.83
2023-03-02T10:31:00.169Z,53.63
2023-03-02T10:32:00.289Z,53.73
2023-03-02T10:33:00.108Z,53.73
2023-03-02T10:34:00.113Z,53.63
2023-03-02T10:35:00.096Z,53.73
2023-03-02T10:36:00.129Z,53.50
2023-03-02T10:37:00.031Z,53.50
2023-03-02T10:38:00.046Z,53.39
2023-03-02T10:39:00.017Z,53.81
2023-03-02T10:40:00.022Z,53.60
2023-03-02T10:41:00.235Z,53.50
2023-03-02T10:42:00.009Z,53.50
2023-03-02T10:42:59.972Z,53.60
2023-03-02T10:43:59.996Z,53.81
2023-03-02T10:44:59.954Z,53.58
2023-03-02T10:45:59.981Z,53.58
2023-03-02T10:46:59.938Z,53.68
2023-03-02T10:47:59.975Z,53.68
2023-03-02T10:48:59.900Z,53.47
2023-03-02T10:49:59.923Z,53.27
2023-03-02T10:50:59.906Z,53.24
2023-03-02T10:51:59.888Z,53.34
2023-03-02T10:53:01.575Z,53.34
2023-03-02T10:53:59.882Z,53.45
2023-03-02T10:54:59.841Z,53.34
2023-03-02T10:55:59.837Z,53.34
2023-03-02T10:56:59.822Z,53.32
2023-03-02T10:57:59.842Z,53.42
2023-03-02T10:58:59.814Z,53.42
2023-03-02T10:59:59.799Z,53.11
2023-03-02T11:00:59.827Z,53.01
2023-03-02T11:01:59.825Z,53.19
2023-03-02T11:02:59.751Z,52.88
2023-03-02T11:03:59.758Z,52.78
2023-03-02T11:04:59.808Z,52.68
2023-03-02T11:05:59.745Z,52.45
2023-03-02T11:06:59.736Z,52.24
2023-03-02T11:07:59.725Z,52.45
2023-03-02T11:08:59.708Z,52.34
2023-03-02T11:09:59.720Z,52.55
2023-03-02T11:11:01.058Z,52.66
2023-03-02T11:11:59.739Z,52.14
2023-03-02T11:12:59.789Z,52.01
2023-03-02T11:13:59.669Z,52.09
2023-03-02T11:14:59.630Z,49.79
2023-03-02T11:15:59.755Z,48.13
2023-03-02T11:17:01.022Z,47.28
2023-03-02T11:17:59.616Z,47.38
2023-03-02T11:18:59.603Z,47.30
2023-03-02T11:19:59.598Z,47.41
2023-03-02T11:20:59.603Z,47.84
2023-03-02T11:21:59.656Z,48.04
2023-03-02T11:22:59.560Z,48.04
2023-03-02T11:23:59.533Z,48.27
2023-03-02T11:24:59.526Z,48.58
2023-03-02T11:25:59.575Z,48.79
2023-03-02T11:26:59.572Z,48.81
2023-03-02T11:27:59.529Z,48.81
2023-03-02T11:28:59.500Z,49.32
2023-03-02T11:29:59.490Z,49.22
2023-03-02T11:30:59.499Z,49.22
2023-03-02T11:31:59.546Z,49.35
2023-03-02T11:32:59.477Z,48.93
2023-03-02T11:34:04.760Z,48.93
2023-03-02T11:34:59.482Z,49.04
2023-03-02T11:35:59.501Z,49.24
2023-03-02T11:36:59.450Z,49.35
2023-03-02T11:37:59.401Z,49.44
2023-03-02T11:38:59.387Z,49.55
2023-03-02T11:39:59.398Z,49.44
2023-03-02T11:40:59.383Z,49.52
2023-03-02T11:41:59.400Z,49.32
2023-03-02T11:42:59.349Z,49.22
2023-03-02T11:43:59.349Z,49.11
2023-03-02T11:44:59.311Z,49.22
2023-03-02T11:45:59.352Z,49.32
2023-03-02T11:46:59.414Z,49.43
2023-03-02T11:48:03.141Z,49.32
2023-03-02T11:48:59.284Z,49.43
2023-03-02T11:49:59.277Z,49.52
2023-03-02T11:50:59.293Z,49.73
2023-03-02T11:51:59.263Z,49.52
2023-03-02T11:52:59.259Z,49.71
2023-03-02T11:53:59.285Z,49.81
2023-03-02T11:54:59.205Z,49.60
2023-03-02T11:55:59.251Z,49.40
2023-03-02T11:56:59.208Z,49.81
2023-03-02T11:57:59.182Z,50.02
2023-03-02T11:58:59.160Z,49.79
2023-03-02T11:59:59.197Z,49.99
2023-03-02T12:00:59.203Z,49.58
2023-03-02T12:01:59.198Z,49.05
2023-03-02T12:02:59.113Z,48.94
2023-03-02T12:03:59.136Z,48.74
2023-03-02T12:04:59.128Z,48.31
2023-03-02T12:05:59.109Z,48.31
2023-03-02T12:06:59.099Z,48.31
2023-03-02T12:07:59.102Z,48.41
2023-03-02T12:08:59.079Z,48.28
2023-03-02T12:09:59.078Z,47.56
2023-03-02T12:10:59.033Z,48.08
2023-03-02T12:11:59.072Z,47.67
2023-03-02T12:12:59.034Z,47.55
2023-03-02T12:13:59.030Z,47.55
2023-03-02T12:14:58.986Z,47.44
2023-03-02T12:15:59.017Z,47.55
2023-03-02T12:16:59.002Z,47.73
2023-03-02T12:17:59.042Z,47.42
2023-03-02T12:18:59.004Z,47.11
2023-03-02T12:19:58.969Z,46.70
2023-03-02T12:20:58.926Z,46.81
2023-03-02T12:21:58.932Z,46.48
2023-03-02T12:22:59.723Z,46.48
2023-03-02T12:23:58.948Z,46.68
2023-03-02T12:24:58.909Z,46.56
2023-03-02T12:25:58.899Z,46.04
2023-03-02T12:26:58.857Z,45.94
2023-03-02T12:27:58.879Z,46.64
2023-03-02T12:28:59.067Z,46.12
2023-03-02T12:29:58.851Z,45.72
2023-03-02T12:30:58.854Z,45.39
2023-03-02T12:31:58.973Z,44.78
2023-03-02T12:32:58.804Z,44.67
2023-03-02T12:33:58.782Z,44.67
2023-03-02T12:34:58.890Z,44.76
2023-03-02T12:35:58.794Z,44.24
2023-03-02T12:36:58.835Z,44.14
2023-03-02T12:37:58.844Z,43.94
2023-03-02T12:38:58.815Z,43.73
2023-03-02T12:39:59.649Z,43.32
2023-03-02T12:40:58.730Z,43.63
2023-03-02T12:41:58.736Z,43.51
2023-03-02T12:42:58.718Z,43.30
2023-03-02T12:43:58.730Z,43.20
2023-03-02T12:44:58.727Z,43.10
2023-03-02T12:45:58.707Z,43.71
2023-03-02T12:46:58.731Z,43.10
2023-03-02T12:47:59.092Z,42.67
2023-03-02T12:48:58.657Z,42.77
2023-03-02T12:49:58.637Z,42.47
2023-03-02T12:50:58.772Z,42.36
2023-03-02T12:51:58.725Z,42.36
2023-03-02T12:52:58.611Z,42.45
2023-03-02T12:53:58.594Z,42.35
2023-03-02T12:54:58.599Z,41.63
2023-03-02T12:55:58.581Z,41.33
2023-03-02T12:56:59.027Z,41.02
2023-03-02T12:57:58.538Z,41.33
2023-03-02T12:58:58.523Z,40.92
2023-03-02T12:59:58.516Z,41.20
2023-03-02T13:00:58.565Z,41.20
2023-03-02T13:01:58.482Z,40.80
2023-03-02T13:02:58.550Z,40.69
2023-03-02T13:03:58.510Z,40.49
2023-03-02T13:04:58.464Z,40.39
2023-03-02T13:05:58.481Z,40.67
2023-03-02T13:06:58.461Z,40.78
2023-03-02T13:07:58.438Z,40.67
2023-03-02T13:08:58.500Z,40.26
2023-03-02T13:09:58.462Z,39.55
2023-03-02T13:10:58.431Z,39.86
2023-03-02T13:11:58.389Z,40.06
2023-03-02T13:12:58.425Z,39.43
2023-03-02T13:13:58.352Z,39.64
2023-03-02T13:14:58.365Z,39.33
2023-03-02T13:15:58.338Z,39.23
2023-03-02T13:16:58.430Z,39.13
2023-03-02T13:17:58.324Z,39.64
2023-03-02T13:18:58.308Z,38.82
2023-03-02T13:19:58.308Z,38.51
2023-03-02T13:20:58.295Z,37.88
2023-03-02T13:21:58.407Z,38.40
2023-03-02T13:22:58.255Z,38.40
2023-03-02T13:23:58.259Z,38.49
2023-03-02T13:24:58.253Z,38.49
2023-03-02T13:25:58.230Z,38.07
2023-03-02T13:26:58.228Z,38.07
2023-03-02T13:27:58.235Z,38.48
2023-03-02T13:28:58.202Z,38.89
2023-03-02T13:29:58.225Z,38.28
2023-03-02T13:30:58.320Z,38.48
2023-03-02T13:31:58.206Z,38.07
2023-03-02T13:32:58.151Z,37.87
2023-03-02T13:33:58.133Z,38.38
2023-03-02T13:34:58.143Z,38.38
2023-03-02T13:35:58.113Z,38.38
2023-03-02T13:36:58.495Z,38.17
2023-03-02T13:37:58.142Z,38.78
2023-03-02T13:38:58.088Z,37.97
2023-03-02T13:39:58.065Z,38.26
2023-03-02T13:40:58.096Z,37.85
2023-03-02T13:41:58.062Z,37.65
2023-03-02T13:42:58.061Z,37.12
2023-03-02T13:43:58.016Z,37.14
2023-03-02T13:44:58.025Z,36.83
2023-03-02T13:45:58.047Z,37.65
2023-03-02T13:46:58.027Z,37.34
2023-03-02T13:47:58.252Z,37.04
2023-03-02T13:49:09.111Z,37.04
2023-03-02T13:49:57.976Z,37.04
2023-03-02T13:50:57.962Z,37.24
2023-03-02T13:51:57.932Z,36.92
2023-03-02T13:52:57.959Z,36.71
2023-03-02T13:53:57.923Z,37.24
2023-03-02T13:54:57.914Z,37.32
2023-03-02T13:55:57.878Z,37.23
2023-03-02T13:56:57.890Z,37.23
2023-03-02T13:57:57.859Z,37.43
2023-03-02T13:58:57.899Z,37.32
2023-03-02T13:59:57.837Z,37.32
2023-03-02T14:00:57.929Z,37.53
2023-03-02T14:01:57.816Z,37.53
2023-03-02T14:02:57.827Z,37.63
2023-03-02T14:03:57.878Z,37.63
2023-03-02T14:04:58.125Z,37.53
2023-03-02T14:05:57.774Z,37.53
2023-03-02T14:06:57.773Z,37.82
2023-03-02T14:07:57.776Z,37.71
2023-03-02T14:08:57.762Z,38.02
2023-03-02T14:09:57.760Z,37.41
2023-03-02T14:10:57.759Z,37.41
2023-03-02T14:11:57.704Z,37.71
2023-03-02T14:12:57.742Z,37.61
2023-03-02T14:13:57.694Z,37.92
2023-03-02T14:14:57.749Z,37.82
2023-03-02T14:15:57.702Z,37.49
2023-03-02T14:16:57.689Z,38.00
2023-03-02T14:17:57.652Z,37.59
2023-03-02T14:18:57.678Z,37.29
2023-03-02T14:19:57.638Z,37.49
2023-03-02T14:20:57.738Z,37.59
2023-03-02T14:21:57.601Z,37.49
2023-03-02T14:22:57.605Z,37.29
2023-03-02T14:23:57.628Z,37.29
2023-03-02T14:24:57.614Z,37.58
2023-03-02T14:25:57.600Z,37.68
2023-03-02T14:26:57.572Z,37.58
2023-03-02T14:27:57.536Z,37.48
2023-03-02T14:29:05.576Z,37.37
2023-03-02T14:29:57.574Z,37.07
2023-03-02T14:30:57.641Z,36.87
2023-03-02T14:31:57.567Z,36.85
2023-03-02T14:32:57.516Z,36.95
2023-03-02T14:33:57.470Z,37.05
2023-03-02T14:34:57.487Z,37.05
2023-03-02T14:35:57.523Z,37.35
2023-03-02T14:36:57.486Z,37.05
2023-03-02T14:37:57.425Z,36.54
2023-03-02T14:38:57.428Z,36.85
2023-03-02T14:39:57.405Z,36.75
2023-03-02T14:40:57.463Z,36.85
2023-03-02T14:41:57.727Z,36.65
2023-03-02T14:42:57.385Z,36.34
2023-03-02T14:43:57.363Z,36.24
2023-03-02T14:44:58.511Z,36.44
2023-03-02T14:45:57.367Z,36.44
2023-03-02T14:46:57.372Z,36.54
2023-03-02T14:47:57.397Z,36.34
2023-03-02T14:48:57.325Z,36.24
2023-03-02T14:49:57.310Z,36.44
2023-03-02T14:50:59.171Z,36.44
2023-03-02T14:51:57.288Z,36.24
2023-03-02T14:52:57.322Z,36.04
2023-03-02T14:53:57.288Z,36.54
2023-03-02T14:54:57.246Z,36.34
2023-03-02T14:55:57.229Z,36.65
2023-03-02T14:56:57.235Z,36.34
2023-03-02T14:57:57.217Z,35.94
2023-03-02T14:58:57.249Z,36.24
2023-03-02T14:59:57.204Z,36.14
2023-03-02T15:00:57.249Z,35.94
2023-03-02T15:01:58.912Z,36.24
2023-03-02T15:02:57.257Z,36.14
2023-03-02T15:03:57.173Z,36.34
2023-03-02T15:04:57.693Z,36.65
2023-03-02T15:06:01.730Z,36.04
2023-03-02T15:06:57.142Z,36.04
2023-03-02T15:07:58.630Z,36.24
2023-03-02T15:08:57.146Z,36.24
2023-03-02T15:09:57.127Z,35.64
2023-03-02T15:10:57.136Z,35.85
2023-03-02T15:11:57.055Z,35.95
2023-03-02T15:12:57.069Z,36.25
2023-03-02T15:13:57.041Z,36.25
2023-03-02T15:14:57.058Z,36.36
2023-03-02T15:15:57.123Z,36.36
2023-03-02T15:16:57.094Z,36.05
2023-03-02T15:17:57.016Z,36.05
2023-03-02T15:18:58.822Z,35.75
2023-03-02T15:19:56.986Z,35.86
2023-03-02T15:20:57.000Z,36.07
2023-03-02T15:21:56.958Z,36.07
2023-03-02T15:22:56.997Z,36.07
2023-03-02T15:23:56.967Z,36.17
2023-03-02T15:24:56.944Z,36.17
2023-03-02T15:25:56.907Z,35.77
2023-03-02T15:26:56.929Z,35.97
2023-03-02T15:27:56.884Z,35.86
2023-03-02T15:28:56.927Z,35.97
2023-03-02T15:29:57.122Z,36.17
2023-03-02T15:30:56.880Z,35.77
2023-03-02T15:31:56.988Z,35.86
2023-03-02T15:32:56.925Z,35.66
2023-03-02T15:33:56.947Z,35.66
2023-03-02T15:34:56.873Z,35.97
2023-03-02T15:35:56.914Z,35.86
2023-03-02T15:36:56.816Z,35.86
2023-03-02T15:37:56.772Z,35.86
2023-03-02T15:38:56.797Z,35.97
2023-03-02T15:39:56.792Z,35.97
2023-03-02T15:40:56.764Z,35.66
2023-03-02T15:41:56.750Z,36.07
2023-03-02T15:42:56.745Z,36.17
2023-03-02T15:43:56.717Z,35.97
2023-03-02T15:44:56.720Z,35.99
2023-03-02T15:45:56.721Z,36.08
2023-03-02T15:46:56.747Z,35.99
2023-03-02T15:47:56.682Z,35.88
2023-03-02T15:48:56.675Z,35.99
2023-03-02T15:49:56.650Z,36.08
2023-03-02T15:50:56.668Z,35.78
2023-03-02T15:51:56.670Z,35.88
2023-03-02T15:52:56.664Z,35.99
2023-03-02T15:53:56.615Z,35.88
2023-03-02T15:54:56.604Z,36.00
2023-03-02T15:55:56.603Z,36.00
2023-03-02T15:56:56.604Z,36.00
2023-03-02T15:57:56.577Z,36.00
2023-03-02T15:58:56.562Z,35.80
2023-03-02T15:59:56.537Z,36.00
2023-03-02T16:00:56.612Z,35.80
2023-03-02T16:01:56.512Z,35.70
2023-03-02T16:02:56.591Z,35.90
2023-03-02T16:03:56.516Z,35.90
2023-03-02T16:04:56.506Z,35.90
2023-03-02T16:05:56.491Z,35.70
2023-03-02T16:06:56.474Z,35.39
2023-03-02T16:07:56.455Z,35.70
2023-03-02T16:08:56.486Z,35.90
2023-03-02T16:09:56.472Z,35.71
2023-03-02T16:10:56.530Z,36.02
2023-03-02T16:11:56.421Z,36.02
2023-03-02T16:12:56.413Z,36.22
2023-03-02T16:13:56.406Z,36.02
2023-03-02T16:14:56.408Z,36.24
2023-03-02T16:15:56.362Z,36.34
2023-03-02T16:16:56.443Z,36.44
2023-03-02T16:17:56.355Z,36.44
2023-03-02T16:18:56.368Z,36.46
2023-03-02T16:19:56.355Z,36.46
2023-03-02T16:20:56.327Z,36.77
2023-03-02T16:21:56.331Z,36.87
2023-03-02T16:22:56.344Z,37.09
2023-03-02T16:23:56.321Z,36.99
2023-03-02T16:24:56.305Z,36.88
2023-03-02T16:25:56.259Z,36.99
2023-03-02T16:26:56.263Z,37.19
2023-03-02T16:27:56.249Z,37.10
2023-03-02T16:28:56.263Z,37.31
2023-03-02T16:29:56.211Z,37.01
2023-03-02T16:30:56.216Z,37.21
2023-03-02T16:31:56.394Z,37.51
2023-03-02T16:32:56.202Z,36.90
2023-03-02T16:33:56.184Z,37.02
2023-03-02T16:34:56.203Z,37.12
2023-03-02T16:35:56.163Z,36.92
2023-03-02T16:36:56.228Z,37.02
2023-03-02T16:37:56.136Z,37.12
2023-03-02T16:38:56.354Z,36.73
2023-03-02T16:39:56.129Z,37.04
2023-03-02T16:40:57.168Z,37.04
2023-03-02T16:41:56.078Z,37.45
2023-03-02T16:42:56.094Z,37.36
2023-03-02T16:43:56.099Z,37.57
2023-03-02T16:44:56.086Z,37.57
2023-03-02T16:45:56.141Z,37.67
2023-03-02T16:46:57.472Z,37.77
2023-03-02T16:47:56.035Z,37.89
2023-03-02T16:48:56.031Z,37.89
2023-03-02T16:49:56.044Z,37.89
2023-03-02T16:50:56.023Z,37.89
2023-03-02T16:51:56.046Z,37.99
2023-03-02T16:52:56.008Z,38.01
2023-03-02T16:53:55.965Z,38.01
2023-03-02T16:54:55.983Z,38.11
2023-03-02T16:55:55.965Z,38.01
2023-03-02T16:56:55.981Z,38.21
2023-03-02T16:57:55.967Z,38.34
2023-03-02T16:58:56.661Z,38.34
2023-03-02T16:59:55.903Z,38.44
2023-03-02T17:00:56.078Z,38.54
2023-03-02T17:01:55.894Z,38.44
2023-03-02T17:02:55.928Z,38.23
2023-03-02T17:03:55.978Z,38.04
2023-03-02T17:04:55.835Z,38.35
2023-03-02T17:05:55.851Z,38.15
2023-03-02T17:07:00.745Z,38.15
2023-03-02T17:07:55.838Z,38.15
2023-03-02T17:08:55.820Z,38.17
2023-03-02T17:09:55.797Z,38.17
2023-03-02T17:10:55.774Z,38.17
2023-03-02T17:11:55.800Z,38.27
2023-03-02T17:12:55.751Z,38.47
2023-03-02T17:13:55.757Z,38.37
2023-03-02T17:14:55.759Z,38.59
2023-03-02T17:15:55.814Z,38.49
2023-03-02T17:16:55.733Z,38.59
2023-03-02T17:17:55.735Z,38.70
2023-03-02T17:18:55.731Z,38.90
2023-03-02T17:19:55.720Z,38.82
2023-03-02T17:20:55.684Z,39.12
2023-03-02T17:21:55.682Z,39.33